sensor_id;sensor_type;location;lat;lon;timestamp;P1;durP1;ratioP1;P2;durP2;ratioP2
4208;SDS011;36320;48.860;2.380;2023-06-22T00:02:18;8.35;;;1.60;;
4208;SDS011;36320;48.860;2.380;2023-06-22T00:04:44;7.20;;;1.50;;
4208;SDS011;36320;48.860;2.380;2023-06-22T00:07:11;11.30;;;1.80;;
4208;SDS011;36320;48.860;2.380;2023-06-22T00:09:37;8.20;;;1.73;;
4208;SDS011;36320;48.860;2.380;2023-06-22T00:12:02;7.63;;;1.80;;
4208;SDS011;36320;48.860;2.380;2023-06-22T00:14:29;8.70;;;1.70;;
4208;SDS011;36320;48.860;2.380;2023-06-22T00:16:55;11.07;;;1.95;;
4208;SDS011;36320;48.860;2.380;2023-06-22T00:19:24;8.13;;;1.50;;
4208;SDS011;36320;48.860;2.380;2023-06-22T00:21:50;8.25;;;1.65;;
4208;SDS011;36320;48.860;2.380;2023-06-22T00:24:19;7.20;;;1.30;;
4208;SDS011;36320;48.860;2.380;2023-06-22T00:26:46;7.38;;;1.50;;
4208;SDS011;36320;48.860;2.380;2023-06-22T00:29:12;8.70;;;2.00;;
4208;SDS011;36320;48.860;2.380;2023-06-22T00:31:38;9.30;;;2.10;;
4208;SDS011;36320;48.860;2.380;2023-06-22T00:34:04;8.82;;;2.00;;
4208;SDS011;36320;48.860;2.380;2023-06-22T00:36:35;8.35;;;1.70;;
4208;SDS011;36320;48.860;2.380;2023-06-22T00:39:01;7.55;;;1.65;;
4208;SDS011;36320;48.860;2.380;2023-06-22T00:41:27;10.20;;;1.80;;
4208;SDS011;36320;48.860;2.380;2023-06-22T00:43:53;8.05;;;1.67;;
4208;SDS011;36320;48.860;2.380;2023-06-22T00:46:20;7.03;;;1.40;;
4208;SDS011;36320;48.860;2.380;2023-06-22T00:48:47;7.80;;;1.63;;
4208;SDS011;36320;48.860;2.380;2023-06-22T00:51:13;7.60;;;1.58;;
4208;SDS011;36320;48.860;2.380;2023-06-22T00:53:42;8.77;;;1.80;;
4208;SDS011;36320;48.860;2.380;2023-06-22T00:56:08;7.90;;;1.90;;
4208;SDS011;36320;48.860;2.380;2023-06-22T00:58:38;7.20;;;1.50;;
4208;SDS011;36320;48.860;2.380;2023-06-22T01:01:06;7.20;;;1.60;;
4208;SDS011;36320;48.860;2.380;2023-06-22T01:03:33;9.13;;;1.67;;
4208;SDS011;36320;48.860;2.380;2023-06-22T01:06:01;7.10;;;1.40;;
4208;SDS011;36320;48.860;2.380;2023-06-22T01:08:48;7.07;;;1.48;;
4208;SDS011;36320;48.860;2.380;2023-06-22T01:11:26;12.10;;;2.20;;
4208;SDS011;36320;48.860;2.380;2023-06-22T01:14:00;6.80;;;1.30;;
4208;SDS011;36320;48.860;2.380;2023-06-22T01:16:35;8.23;;;1.90;;
4208;SDS011;36320;48.860;2.380;2023-06-22T01:19:13;9.45;;;1.83;;
4208;SDS011;36320;48.860;2.380;2023-06-22T01:21:51;7.90;;;1.80;;
4208;SDS011;36320;48.860;2.380;2023-06-22T01:24:23;8.10;;;1.80;;
4208;SDS011;36320;48.860;2.380;2023-06-22T01:27:05;9.03;;;1.60;;
4208;SDS011;36320;48.860;2.380;2023-06-22T01:29:57;7.38;;;1.50;;
4208;SDS011;36320;48.860;2.380;2023-06-22T01:32:30;9.15;;;1.65;;
4208;SDS011;36320;48.860;2.380;2023-06-22T01:35:01;7.95;;;1.63;;
4208;SDS011;36320;48.860;2.380;2023-06-22T01:37:30;7.90;;;1.70;;
4208;SDS011;36320;48.860;2.380;2023-06-22T01:39:57;11.68;;;1.65;;
4208;SDS011;36320;48.860;2.380;2023-06-22T01:42:24;7.75;;;1.52;;
4208;SDS011;36320;48.860;2.380;2023-06-22T01:44:57;8.27;;;1.70;;
4208;SDS011;36320;48.860;2.380;2023-06-22T01:47:24;7.70;;;1.73;;
4208;SDS011;36320;48.860;2.380;2023-06-22T01:49:52;9.38;;;1.70;;
4208;SDS011;36320;48.860;2.380;2023-06-22T01:52:18;9.90;;;2.10;;
4208;SDS011;36320;48.860;2.380;2023-06-22T01:54:46;8.02;;;1.77;;
4208;SDS011;36320;48.860;2.380;2023-06-22T01:57:13;11.65;;;2.25;;
4208;SDS011;36320;48.860;2.380;2023-06-22T02:02:12;8.35;;;1.83;;
4208;SDS011;36320;48.860;2.380;2023-06-22T02:04:48;7.95;;;1.73;;
4208;SDS011;36320;48.860;2.380;2023-06-22T02:07:50;7.10;;;1.40;;
4208;SDS011;36320;48.860;2.380;2023-06-22T02:10:27;10.10;;;1.70;;
4208;SDS011;36320;48.860;2.380;2023-06-22T02:12:53;8.00;;;1.60;;
4208;SDS011;36320;48.860;2.380;2023-06-22T02:15:22;7.90;;;1.50;;
4208;SDS011;36320;48.860;2.380;2023-06-22T02:17:48;9.25;;;1.60;;
4208;SDS011;36320;48.860;2.380;2023-06-22T02:20:14;7.38;;;1.60;;
4208;SDS011;36320;48.860;2.380;2023-06-22T02:22:40;7.97;;;1.67;;
4208;SDS011;36320;48.860;2.380;2023-06-22T02:25:08;7.00;;;1.42;;
4208;SDS011;36320;48.860;2.380;2023-06-22T02:27:34;7.80;;;1.70;;
4208;SDS011;36320;48.860;2.380;2023-06-22T02:29:59;7.30;;;1.60;;
4208;SDS011;36320;48.860;2.380;2023-06-22T02:32:25;8.50;;;1.90;;
4208;SDS011;36320;48.860;2.380;2023-06-22T02:34:52;10.50;;;1.50;;
4208;SDS011;36320;48.860;2.380;2023-06-22T02:37:18;8.02;;;1.90;;
4208;SDS011;36320;48.860;2.380;2023-06-22T02:39:43;7.28;;;1.70;;
4208;SDS011;36320;48.860;2.380;2023-06-22T02:42:09;9.10;;;1.60;;
4208;SDS011;36320;48.860;2.380;2023-06-22T02:44:36;7.43;;;1.52;;
4208;SDS011;36320;48.860;2.380;2023-06-22T02:47:02;10.00;;;1.60;;
4208;SDS011;36320;48.860;2.380;2023-06-22T02:49:27;8.60;;;1.80;;
4208;SDS011;36320;48.860;2.380;2023-06-22T02:51:54;7.13;;;1.60;;
4208;SDS011;36320;48.860;2.380;2023-06-22T02:54:20;7.88;;;1.70;;
4208;SDS011;36320;48.860;2.380;2023-06-22T02:56:47;7.63;;;1.60;;
4208;SDS011;36320;48.860;2.380;2023-06-22T02:59:13;8.00;;;1.70;;
4208;SDS011;36320;48.860;2.380;2023-06-22T03:01:39;7.90;;;1.80;;
4208;SDS011;36320;48.860;2.380;2023-06-22T03:04:08;8.70;;;1.80;;
4208;SDS011;36320;48.860;2.380;2023-06-22T03:06:35;9.10;;;1.60;;
4208;SDS011;36320;48.860;2.380;2023-06-22T03:09:02;9.43;;;1.60;;
4208;SDS011;36320;48.860;2.380;2023-06-22T03:11:30;7.60;;;1.50;;
4208;SDS011;36320;48.860;2.380;2023-06-22T03:13:56;7.40;;;1.50;;
4208;SDS011;36320;48.860;2.380;2023-06-22T03:16:22;7.90;;;1.40;;
4208;SDS011;36320;48.860;2.380;2023-06-22T03:18:48;9.90;;;1.80;;
4208;SDS011;36320;48.860;2.380;2023-06-22T03:21:14;9.18;;;1.60;;
4208;SDS011;36320;48.860;2.380;2023-06-22T03:23:41;8.27;;;1.88;;
4208;SDS011;36320;48.860;2.380;2023-06-22T03:26:10;10.00;;;2.40;;
4208;SDS011;36320;48.860;2.380;2023-06-22T03:28:37;8.65;;;1.80;;
4208;SDS011;36320;48.860;2.380;2023-06-22T03:31:03;9.70;;;2.10;;
4208;SDS011;36320;48.860;2.380;2023-06-22T03:33:32;7.60;;;1.33;;
4208;SDS011;36320;48.860;2.380;2023-06-22T03:35:58;8.60;;;1.70;;
4208;SDS011;36320;48.860;2.380;2023-06-22T03:38:25;8.23;;;1.52;;
4208;SDS011;36320;48.860;2.380;2023-06-22T03:40:53;9.10;;;1.90;;
4208;SDS011;36320;48.860;2.380;2023-06-22T03:43:19;8.47;;;1.70;;
4208;SDS011;36320;48.860;2.380;2023-06-22T03:45:44;8.35;;;1.65;;
4208;SDS011;36320;48.860;2.380;2023-06-22T03:48:11;7.88;;;1.60;;
4208;SDS011;36320;48.860;2.380;2023-06-22T03:50:38;8.27;;;1.92;;
4208;SDS011;36320;48.860;2.380;2023-06-22T03:53:04;7.73;;;1.70;;
4208;SDS011;36320;48.860;2.380;2023-06-22T03:55:29;9.40;;;1.90;;
4208;SDS011;36320;48.860;2.380;2023-06-22T03:57:56;8.05;;;1.52;;
4208;SDS011;36320;48.860;2.380;2023-06-22T04:00:23;10.70;;;1.90;;
4208;SDS011;36320;48.860;2.380;2023-06-22T04:02:49;10.23;;;1.85;;
4208;SDS011;36320;48.860;2.380;2023-06-22T04:05:16;8.27;;;1.90;;
4208;SDS011;36320;48.860;2.380;2023-06-22T04:07:46;7.25;;;1.50;;
4208;SDS011;36320;48.860;2.380;2023-06-22T04:10:12;10.73;;;2.13;;
4208;SDS011;36320;48.860;2.380;2023-06-22T04:12:37;7.57;;;1.67;;
4208;SDS011;36320;48.860;2.380;2023-06-22T04:15:03;8.07;;;1.60;;
4208;SDS011;36320;48.860;2.380;2023-06-22T04:17:29;8.10;;;1.70;;
4208;SDS011;36320;48.860;2.380;2023-06-22T04:19:55;8.47;;;1.63;;
4208;SDS011;36320;48.860;2.380;2023-06-22T04:22:21;8.10;;;1.90;;
4208;SDS011;36320;48.860;2.380;2023-06-22T04:24:47;9.10;;;1.52;;
4208;SDS011;36320;48.860;2.380;2023-06-22T04:27:12;8.10;;;1.90;;
4208;SDS011;36320;48.860;2.380;2023-06-22T04:29:38;7.87;;;1.80;;
4208;SDS011;36320;48.860;2.380;2023-06-22T04:32:14;8.80;;;1.88;;
4208;SDS011;36320;48.860;2.380;2023-06-22T04:34:40;9.57;;;2.10;;
4208;SDS011;36320;48.860;2.380;2023-06-22T04:37:08;8.07;;;1.70;;
4208;SDS011;36320;48.860;2.380;2023-06-22T04:39:34;8.63;;;2.00;;
4208;SDS011;36320;48.860;2.380;2023-06-22T04:41:59;8.88;;;1.88;;
4208;SDS011;36320;48.860;2.380;2023-06-22T04:44:26;7.50;;;1.80;;
4208;SDS011;36320;48.860;2.380;2023-06-22T04:46:58;9.40;;;2.42;;
4208;SDS011;36320;48.860;2.380;2023-06-22T04:49:27;9.27;;;1.90;;
4208;SDS011;36320;48.860;2.380;2023-06-22T04:51:57;10.27;;;2.20;;
4208;SDS011;36320;48.860;2.380;2023-06-22T04:54:25;8.73;;;1.90;;
4208;SDS011;36320;48.860;2.380;2023-06-22T04:56:51;8.80;;;1.90;;
4208;SDS011;36320;48.860;2.380;2023-06-22T04:59:26;8.93;;;2.10;;
4208;SDS011;36320;48.860;2.380;2023-06-22T05:01:58;8.98;;;2.10;;
4208;SDS011;36320;48.860;2.380;2023-06-22T05:04:27;8.48;;;2.00;;
4208;SDS011;36320;48.860;2.380;2023-06-22T05:06:56;9.00;;;1.90;;
4208;SDS011;36320;48.860;2.380;2023-06-22T05:09:23;10.57;;;2.00;;
4208;SDS011;36320;48.860;2.380;2023-06-22T05:11:50;10.43;;;2.20;;
4208;SDS011;36320;48.860;2.380;2023-06-22T05:14:19;8.50;;;1.93;;
4208;SDS011;36320;48.860;2.380;2023-06-22T05:16:46;13.70;;;2.30;;
4208;SDS011;36320;48.860;2.380;2023-06-22T05:19:13;8.52;;;2.10;;
4208;SDS011;36320;48.860;2.380;2023-06-22T05:21:41;9.48;;;2.70;;
4208;SDS011;36320;48.860;2.380;2023-06-22T05:24:07;9.47;;;2.10;;
4208;SDS011;36320;48.860;2.380;2023-06-22T05:26:33;12.13;;;2.30;;
4208;SDS011;36320;48.860;2.380;2023-06-22T05:29:00;11.13;;;2.20;;
4208;SDS011;36320;48.860;2.380;2023-06-22T05:31:27;15.13;;;2.80;;
4208;SDS011;36320;48.860;2.380;2023-06-22T05:33:58;9.20;;;2.00;;
4208;SDS011;36320;48.860;2.380;2023-06-22T05:36:25;11.55;;;2.30;;
4208;SDS011;36320;48.860;2.380;2023-06-22T05:38:56;11.03;;;2.20;;
4208;SDS011;36320;48.860;2.380;2023-06-22T05:41:22;10.10;;;2.65;;
4208;SDS011;36320;48.860;2.380;2023-06-22T05:43:48;9.48;;;2.50;;
4208;SDS011;36320;48.860;2.380;2023-06-22T05:46:13;11.33;;;2.77;;
4208;SDS011;36320;48.860;2.380;2023-06-22T05:48:39;13.60;;;2.47;;
4208;SDS011;36320;48.860;2.380;2023-06-22T05:51:05;14.48;;;2.65;;
4208;SDS011;36320;48.860;2.380;2023-06-22T05:53:31;10.50;;;2.80;;
4208;SDS011;36320;48.860;2.380;2023-06-22T05:55:56;13.87;;;2.77;;
4208;SDS011;36320;48.860;2.380;2023-06-22T05:58:22;10.80;;;2.30;;
4208;SDS011;36320;48.860;2.380;2023-06-22T06:00:49;10.00;;;2.28;;
4208;SDS011;36320;48.860;2.380;2023-06-22T06:03:15;11.70;;;3.53;;
4208;SDS011;36320;48.860;2.380;2023-06-22T06:05:42;11.05;;;2.65;;
4208;SDS011;36320;48.860;2.380;2023-06-22T06:08:10;10.30;;;2.85;;
4208;SDS011;36320;48.860;2.380;2023-06-22T06:10:37;13.50;;;3.17;;
4208;SDS011;36320;48.860;2.380;2023-06-22T06:13:03;11.10;;;3.07;;
4208;SDS011;36320;48.860;2.380;2023-06-22T06:15:32;12.13;;;3.03;;
4208;SDS011;36320;48.860;2.380;2023-06-22T06:17:59;12.48;;;2.70;;
4208;SDS011;36320;48.860;2.380;2023-06-22T06:20:25;11.00;;;3.13;;
4208;SDS011;36320;48.860;2.380;2023-06-22T06:22:55;19.15;;;3.35;;
4208;SDS011;36320;48.860;2.380;2023-06-22T06:25:21;11.32;;;2.72;;
4208;SDS011;36320;48.860;2.380;2023-06-22T06:27:48;11.93;;;2.83;;
4208;SDS011;36320;48.860;2.380;2023-06-22T06:30:16;10.32;;;2.60;;
4208;SDS011;36320;48.860;2.380;2023-06-22T06:32:44;14.02;;;2.97;;
4208;SDS011;36320;48.860;2.380;2023-06-22T06:35:12;11.30;;;2.95;;
4208;SDS011;36320;48.860;2.380;2023-06-22T06:37:39;13.38;;;3.45;;
4208;SDS011;36320;48.860;2.380;2023-06-22T06:40:09;10.27;;;3.07;;
4208;SDS011;36320;48.860;2.380;2023-06-22T06:42:37;9.80;;;2.88;;
4208;SDS011;36320;48.860;2.380;2023-06-22T06:45:05;12.05;;;3.40;;
4208;SDS011;36320;48.860;2.380;2023-06-22T06:47:32;14.37;;;3.23;;
4208;SDS011;36320;48.860;2.380;2023-06-22T06:49:58;13.10;;;3.40;;
4208;SDS011;36320;48.860;2.380;2023-06-22T06:52:24;10.90;;;3.20;;
4208;SDS011;36320;48.860;2.380;2023-06-22T06:54:51;13.70;;;3.83;;
4208;SDS011;36320;48.860;2.380;2023-06-22T06:57:18;13.93;;;3.67;;
4208;SDS011;36320;48.860;2.380;2023-06-22T06:59:45;15.32;;;3.15;;
4208;SDS011;36320;48.860;2.380;2023-06-22T07:02:12;14.30;;;3.72;;
4208;SDS011;36320;48.860;2.380;2023-06-22T07:04:39;11.88;;;3.38;;
4208;SDS011;36320;48.860;2.380;2023-06-22T07:07:05;13.40;;;4.03;;
4208;SDS011;36320;48.860;2.380;2023-06-22T07:09:34;16.20;;;3.60;;
4208;SDS011;36320;48.860;2.380;2023-06-22T07:12:01;13.90;;;3.25;;
4208;SDS011;36320;48.860;2.380;2023-06-22T07:14:26;13.45;;;3.97;;
4208;SDS011;36320;48.860;2.380;2023-06-22T07:16:52;14.77;;;4.00;;
4208;SDS011;36320;48.860;2.380;2023-06-22T07:19:23;20.20;;;4.70;;
4208;SDS011;36320;48.860;2.380;2023-06-22T07:21:51;15.85;;;3.22;;
4208;SDS011;36320;48.860;2.380;2023-06-22T07:24:16;13.80;;;3.75;;
4208;SDS011;36320;48.860;2.380;2023-06-22T07:26:45;12.63;;;3.60;;
4208;SDS011;36320;48.860;2.380;2023-06-22T07:29:11;13.38;;;3.88;;
4208;SDS011;36320;48.860;2.380;2023-06-22T07:31:37;12.10;;;3.60;;
4208;SDS011;36320;48.860;2.380;2023-06-22T07:34:05;14.90;;;4.07;;
4208;SDS011;36320;48.860;2.380;2023-06-22T07:36:30;14.25;;;4.60;;
4208;SDS011;36320;48.860;2.380;2023-06-22T07:38:56;15.30;;;4.10;;
4208;SDS011;36320;48.860;2.380;2023-06-22T07:41:22;18.50;;;4.50;;
4208;SDS011;36320;48.860;2.380;2023-06-22T07:43:47;13.17;;;3.70;;
4208;SDS011;36320;48.860;2.380;2023-06-22T07:46:13;14.45;;;4.00;;
4208;SDS011;36320;48.860;2.380;2023-06-22T07:48:42;20.58;;;4.63;;
4208;SDS011;36320;48.860;2.380;2023-06-22T07:51:09;12.35;;;3.55;;
4208;SDS011;36320;48.860;2.380;2023-06-22T07:53:37;17.95;;;3.85;;
4208;SDS011;36320;48.860;2.380;2023-06-22T07:56:09;14.18;;;4.45;;
4208;SDS011;36320;48.860;2.380;2023-06-22T07:58:35;21.30;;;5.00;;
4208;SDS011;36320;48.860;2.380;2023-06-22T08:01:01;16.05;;;4.25;;
4208;SDS011;36320;48.860;2.380;2023-06-22T08:03:28;15.02;;;4.30;;
4208;SDS011;36320;48.860;2.380;2023-06-22T08:05:56;12.95;;;3.90;;
4208;SDS011;36320;48.860;2.380;2023-06-22T08:08:21;16.42;;;4.45;;
4208;SDS011;36320;48.860;2.380;2023-06-22T08:10:48;14.20;;;4.43;;
4208;SDS011;36320;48.860;2.380;2023-06-22T08:13:14;17.50;;;4.05;;
4208;SDS011;36320;48.860;2.380;2023-06-22T08:15:40;20.20;;;3.53;;
4208;SDS011;36320;48.860;2.380;2023-06-22T08:18:05;19.77;;;4.70;;
4208;SDS011;36320;48.860;2.380;2023-06-22T08:20:33;15.40;;;4.13;;
4208;SDS011;36320;48.860;2.380;2023-06-22T08:22:58;14.57;;;3.80;;
4208;SDS011;36320;48.860;2.380;2023-06-22T08:25:30;15.10;;;3.80;;
4208;SDS011;36320;48.860;2.380;2023-06-22T08:27:57;14.85;;;4.15;;
4208;SDS011;36320;48.860;2.380;2023-06-22T08:30:23;15.13;;;4.00;;
4208;SDS011;36320;48.860;2.380;2023-06-22T08:32:53;21.50;;;4.65;;
4208;SDS011;36320;48.860;2.380;2023-06-22T08:35:27;16.33;;;4.28;;
4208;SDS011;36320;48.860;2.380;2023-06-22T08:37:55;16.25;;;4.97;;
4208;SDS011;36320;48.860;2.380;2023-06-22T08:40:22;13.52;;;4.07;;
4208;SDS011;36320;48.860;2.380;2023-06-22T08:42:49;14.82;;;3.90;;
4208;SDS011;36320;48.860;2.380;2023-06-22T08:45:15;20.43;;;4.13;;
4208;SDS011;36320;48.860;2.380;2023-06-22T08:47:41;14.93;;;5.10;;
4208;SDS011;36320;48.860;2.380;2023-06-22T08:50:08;15.38;;;4.40;;
4208;SDS011;36320;48.860;2.380;2023-06-22T08:52:35;16.97;;;4.60;;
4208;SDS011;36320;48.860;2.380;2023-06-22T08:55:02;12.40;;;4.13;;
4208;SDS011;36320;48.860;2.380;2023-06-22T08:57:28;12.88;;;3.72;;
4208;SDS011;36320;48.860;2.380;2023-06-22T08:59:55;13.90;;;4.15;;
4208;SDS011;36320;48.860;2.380;2023-06-22T09:02:24;17.67;;;4.65;;
4208;SDS011;36320;48.860;2.380;2023-06-22T09:05:03;14.63;;;4.55;;
4208;SDS011;36320;48.860;2.380;2023-06-22T09:07:31;12.35;;;3.70;;
4208;SDS011;36320;48.860;2.380;2023-06-22T09:09:56;16.20;;;4.45;;
4208;SDS011;36320;48.860;2.380;2023-06-22T09:12:22;18.40;;;4.68;;
4208;SDS011;36320;48.860;2.380;2023-06-22T09:14:51;12.05;;;3.53;;
4208;SDS011;36320;48.860;2.380;2023-06-22T09:17:20;12.65;;;4.45;;
4208;SDS011;36320;48.860;2.380;2023-06-22T09:19:45;15.38;;;3.90;;
4208;SDS011;36320;48.860;2.380;2023-06-22T09:22:12;14.05;;;3.70;;
4208;SDS011;36320;48.860;2.380;2023-06-22T09:24:38;12.50;;;3.63;;
4208;SDS011;36320;48.860;2.380;2023-06-22T09:27:04;13.25;;;3.75;;
4208;SDS011;36320;48.860;2.380;2023-06-22T09:29:31;13.00;;;3.87;;
4208;SDS011;36320;48.860;2.380;2023-06-22T09:31:58;12.52;;;3.95;;
4208;SDS011;36320;48.860;2.380;2023-06-22T09:34:25;13.70;;;3.65;;
4208;SDS011;36320;48.860;2.380;2023-06-22T09:36:51;19.80;;;3.30;;
4208;SDS011;36320;48.860;2.380;2023-06-22T09:39:17;10.60;;;3.50;;
4208;SDS011;36320;48.860;2.380;2023-06-22T09:41:44;14.10;;;3.50;;
4208;SDS011;36320;48.860;2.380;2023-06-22T09:44:11;10.63;;;3.20;;
4208;SDS011;36320;48.860;2.380;2023-06-22T09:46:39;12.00;;;3.40;;
4208;SDS011;36320;48.860;2.380;2023-06-22T09:49:05;14.15;;;3.80;;
4208;SDS011;36320;48.860;2.380;2023-06-22T09:51:31;18.92;;;3.83;;
4208;SDS011;36320;48.860;2.380;2023-06-22T09:53:58;11.97;;;3.60;;
4208;SDS011;36320;48.860;2.380;2023-06-22T09:56:23;12.85;;;3.40;;
4208;SDS011;36320;48.860;2.380;2023-06-22T09:58:49;11.50;;;3.40;;
4208;SDS011;36320;48.860;2.380;2023-06-22T10:01:17;12.20;;;3.50;;
4208;SDS011;36320;48.860;2.380;2023-06-22T10:03:45;11.32;;;3.25;;
4208;SDS011;36320;48.860;2.380;2023-06-22T10:06:12;10.30;;;3.10;;
4208;SDS011;36320;48.860;2.380;2023-06-22T10:08:38;11.90;;;3.60;;
4208;SDS011;36320;48.860;2.380;2023-06-22T10:11:06;15.57;;;4.20;;
4208;SDS011;36320;48.860;2.380;2023-06-22T10:13:31;10.65;;;3.10;;
4208;SDS011;36320;48.860;2.380;2023-06-22T10:15:57;13.70;;;3.57;;
4208;SDS011;36320;48.860;2.380;2023-06-22T10:18:24;11.02;;;2.47;;
4208;SDS011;36320;48.860;2.380;2023-06-22T10:20:51;11.55;;;2.90;;
4208;SDS011;36320;48.860;2.380;2023-06-22T10:23:17;8.70;;;2.30;;
4208;SDS011;36320;48.860;2.380;2023-06-22T10:25:44;10.95;;;3.00;;
4208;SDS011;36320;48.860;2.380;2023-06-22T10:28:10;10.77;;;2.75;;
4208;SDS011;36320;48.860;2.380;2023-06-22T10:30:37;9.13;;;2.35;;
4208;SDS011;36320;48.860;2.380;2023-06-22T10:33:07;11.77;;;2.38;;
4208;SDS011;36320;48.860;2.380;2023-06-22T10:35:34;9.90;;;2.42;;
4208;SDS011;36320;48.860;2.380;2023-06-22T10:38:00;11.13;;;3.30;;
4208;SDS011;36320;48.860;2.380;2023-06-22T10:40:25;10.50;;;2.67;;
4208;SDS011;36320;48.860;2.380;2023-06-22T10:42:52;8.07;;;2.20;;
4208;SDS011;36320;48.860;2.380;2023-06-22T10:45:20;11.97;;;2.40;;
4208;SDS011;36320;48.860;2.380;2023-06-22T10:47:48;9.27;;;2.50;;
4208;SDS011;36320;48.860;2.380;2023-06-22T10:50:15;10.73;;;2.63;;
4208;SDS011;36320;48.860;2.380;2023-06-22T10:52:41;8.50;;;2.00;;
4208;SDS011;36320;48.860;2.380;2023-06-22T10:55:07;10.10;;;2.53;;
4208;SDS011;36320;48.860;2.380;2023-06-22T10:57:35;11.30;;;2.85;;
4208;SDS011;36320;48.860;2.380;2023-06-22T11:00:01;9.70;;;2.30;;
4208;SDS011;36320;48.860;2.380;2023-06-22T11:02:31;9.00;;;2.03;;
4208;SDS011;36320;48.860;2.380;2023-06-22T11:04:58;9.25;;;2.42;;
4208;SDS011;36320;48.860;2.380;2023-06-22T11:07:26;10.30;;;2.80;;
4208;SDS011;36320;48.860;2.380;2023-06-22T11:09:55;9.02;;;2.47;;
4208;SDS011;36320;48.860;2.380;2023-06-22T11:12:21;9.82;;;2.60;;
4208;SDS011;36320;48.860;2.380;2023-06-22T11:14:47;8.20;;;2.00;;
4208;SDS011;36320;48.860;2.380;2023-06-22T11:17:15;10.43;;;2.60;;
4208;SDS011;36320;48.860;2.380;2023-06-22T11:19:40;8.85;;;2.17;;
4208;SDS011;36320;48.860;2.380;2023-06-22T11:22:08;8.40;;;2.30;;
4208;SDS011;36320;48.860;2.380;2023-06-22T11:24:33;9.20;;;2.20;;
4208;SDS011;36320;48.860;2.380;2023-06-22T11:26:59;9.52;;;2.78;;
4208;SDS011;36320;48.860;2.380;2023-06-22T11:29:26;8.88;;;2.30;;
4208;SDS011;36320;48.860;2.380;2023-06-22T11:31:52;12.93;;;2.70;;
4208;SDS011;36320;48.860;2.380;2023-06-22T11:34:21;7.63;;;2.10;;
4208;SDS011;36320;48.860;2.380;2023-06-22T11:36:47;9.70;;;2.50;;
4208;SDS011;36320;48.860;2.380;2023-06-22T11:39:13;9.77;;;2.40;;
4208;SDS011;36320;48.860;2.380;2023-06-22T11:41:40;11.63;;;2.80;;
4208;SDS011;36320;48.860;2.380;2023-06-22T11:44:06;8.90;;;2.53;;
4208;SDS011;36320;48.860;2.380;2023-06-22T11:46:32;11.07;;;2.30;;
4208;SDS011;36320;48.860;2.380;2023-06-22T11:49:02;11.82;;;3.17;;
4208;SDS011;36320;48.860;2.380;2023-06-22T11:51:27;10.13;;;2.38;;
4208;SDS011;36320;48.860;2.380;2023-06-22T11:54:01;11.65;;;2.60;;
4208;SDS011;36320;48.860;2.380;2023-06-22T11:56:30;8.63;;;2.40;;
4208;SDS011;36320;48.860;2.380;2023-06-22T11:58:59;10.10;;;2.80;;
4208;SDS011;36320;48.860;2.380;2023-06-22T12:01:26;10.95;;;2.85;;
4208;SDS011;36320;48.860;2.380;2023-06-22T12:03:54;9.63;;;2.93;;
4208;SDS011;36320;48.860;2.380;2023-06-22T12:06:20;9.40;;;2.63;;
4208;SDS011;36320;48.860;2.380;2023-06-22T12:08:46;10.57;;;2.60;;
4208;SDS011;36320;48.860;2.380;2023-06-22T12:11:13;12.27;;;2.80;;
4208;SDS011;36320;48.860;2.380;2023-06-22T12:13:39;7.90;;;2.30;;
4208;SDS011;36320;48.860;2.380;2023-06-22T12:16:05;9.77;;;2.53;;
4208;SDS011;36320;48.860;2.380;2023-06-22T12:18:34;10.30;;;2.90;;
4208;SDS011;36320;48.860;2.380;2023-06-22T12:21:00;9.90;;;2.97;;
4208;SDS011;36320;48.860;2.380;2023-06-22T12:23:25;9.47;;;2.90;;
4208;SDS011;36320;48.860;2.380;2023-06-22T12:25:51;10.93;;;2.78;;
4208;SDS011;36320;48.860;2.380;2023-06-22T12:28:17;11.23;;;3.10;;
4208;SDS011;36320;48.860;2.380;2023-06-22T12:30:44;10.98;;;2.70;;
4208;SDS011;36320;48.860;2.380;2023-06-22T12:33:11;9.93;;;2.80;;
4208;SDS011;36320;48.860;2.380;2023-06-22T12:35:39;9.48;;;2.60;;
4208;SDS011;36320;48.860;2.380;2023-06-22T12:38:04;12.63;;;3.10;;
4208;SDS011;36320;48.860;2.380;2023-06-22T12:40:36;13.68;;;3.08;;
4208;SDS011;36320;48.860;2.380;2023-06-22T12:43:02;9.65;;;3.08;;
4208;SDS011;36320;48.860;2.380;2023-06-22T12:45:28;10.07;;;3.03;;
4208;SDS011;36320;48.860;2.380;2023-06-22T12:47:56;12.90;;;2.97;;
4208;SDS011;36320;48.860;2.380;2023-06-22T12:50:25;12.30;;;3.00;;
4208;SDS011;36320;48.860;2.380;2023-06-22T12:52:51;12.23;;;3.28;;
4208;SDS011;36320;48.860;2.380;2023-06-22T12:55:17;9.35;;;2.85;;
4208;SDS011;36320;48.860;2.380;2023-06-22T12:57:43;10.20;;;2.78;;
4208;SDS011;36320;48.860;2.380;2023-06-22T13:00:11;11.20;;;3.17;;
4208;SDS011;36320;48.860;2.380;2023-06-22T13:02:41;10.80;;;2.72;;
4208;SDS011;36320;48.860;2.380;2023-06-22T13:05:10;11.70;;;2.80;;
4208;SDS011;36320;48.860;2.380;2023-06-22T13:07:36;8.73;;;2.37;;
4208;SDS011;36320;48.860;2.380;2023-06-22T13:10:03;9.25;;;2.50;;
4208;SDS011;36320;48.860;2.380;2023-06-22T13:12:30;10.77;;;2.90;;
4208;SDS011;36320;48.860;2.380;2023-06-22T13:14:56;15.18;;;2.78;;
4208;SDS011;36320;48.860;2.380;2023-06-22T13:17:21;11.95;;;2.90;;
4208;SDS011;36320;48.860;2.380;2023-06-22T13:19:47;8.80;;;2.42;;
4208;SDS011;36320;48.860;2.380;2023-06-22T13:22:31;9.10;;;2.50;;
4208;SDS011;36320;48.860;2.380;2023-06-22T13:24:58;11.23;;;3.10;;
4208;SDS011;36320;48.860;2.380;2023-06-22T13:27:25;10.98;;;3.45;;
4208;SDS011;36320;48.860;2.380;2023-06-22T13:29:54;9.52;;;2.92;;
4208;SDS011;36320;48.860;2.380;2023-06-22T13:32:20;14.68;;;3.70;;
4208;SDS011;36320;48.860;2.380;2023-06-22T13:34:47;10.18;;;2.83;;
4208;SDS011;36320;48.860;2.380;2023-06-22T13:37:13;10.98;;;3.10;;
4208;SDS011;36320;48.860;2.380;2023-06-22T13:39:39;14.40;;;4.13;;
4208;SDS011;36320;48.860;2.380;2023-06-22T13:42:06;11.00;;;3.50;;
4208;SDS011;36320;48.860;2.380;2023-06-22T13:44:32;10.40;;;3.22;;
4208;SDS011;36320;48.860;2.380;2023-06-22T13:46:59;12.48;;;3.00;;
4208;SDS011;36320;48.860;2.380;2023-06-22T13:49:25;10.57;;;3.45;;
4208;SDS011;36320;48.860;2.380;2023-06-22T13:51:52;12.95;;;3.20;;
4208;SDS011;36320;48.860;2.380;2023-06-22T13:54:18;11.70;;;3.63;;
4208;SDS011;36320;48.860;2.380;2023-06-22T13:56:44;12.20;;;3.50;;
4208;SDS011;36320;48.860;2.380;2023-06-22T13:59:10;14.10;;;4.00;;
4208;SDS011;36320;48.860;2.380;2023-06-22T14:01:36;12.98;;;3.35;;
4208;SDS011;36320;48.860;2.380;2023-06-22T14:04:06;14.65;;;2.80;;
4208;SDS011;36320;48.860;2.380;2023-06-22T14:06:37;12.60;;;4.00;;
4208;SDS011;36320;48.860;2.380;2023-06-22T14:09:04;9.93;;;2.90;;
4208;SDS011;36320;48.860;2.380;2023-06-22T14:11:30;9.23;;;2.53;;
4208;SDS011;36320;48.860;2.380;2023-06-22T14:13:55;9.82;;;2.65;;
4208;SDS011;36320;48.860;2.380;2023-06-22T14:16:24;10.20;;;3.00;;
4208;SDS011;36320;48.860;2.380;2023-06-22T14:18:51;10.70;;;2.60;;
4208;SDS011;36320;48.860;2.380;2023-06-22T14:21:17;12.75;;;3.50;;
4208;SDS011;36320;48.860;2.380;2023-06-22T14:23:44;11.68;;;2.95;;
4208;SDS011;36320;48.860;2.380;2023-06-22T14:26:14;9.50;;;2.80;;
4208;SDS011;36320;48.860;2.380;2023-06-22T14:28:44;10.75;;;3.10;;
4208;SDS011;36320;48.860;2.380;2023-06-22T14:31:16;9.87;;;2.50;;
4208;SDS011;36320;48.860;2.380;2023-06-22T14:33:45;9.90;;;3.10;;
4208;SDS011;36320;48.860;2.380;2023-06-22T14:36:13;10.32;;;2.70;;
4208;SDS011;36320;48.860;2.380;2023-06-22T14:38:40;10.88;;;2.75;;
4208;SDS011;36320;48.860;2.380;2023-06-22T14:41:06;9.40;;;3.10;;
4208;SDS011;36320;48.860;2.380;2023-06-22T14:43:31;10.65;;;3.60;;
4208;SDS011;36320;48.860;2.380;2023-06-22T14:46:01;9.93;;;2.60;;
4208;SDS011;36320;48.860;2.380;2023-06-22T14:48:27;8.77;;;2.58;;
4208;SDS011;36320;48.860;2.380;2023-06-22T14:50:54;18.75;;;2.65;;
4208;SDS011;36320;48.860;2.380;2023-06-22T14:53:21;9.43;;;2.40;;
4208;SDS011;36320;48.860;2.380;2023-06-22T14:55:48;9.55;;;2.63;;
4208;SDS011;36320;48.860;2.380;2023-06-22T14:58:14;10.07;;;2.50;;